createdAt,value
2023-05-02T00:01:43.949Z,84.50
2023-05-02T00:04:13.194Z,84.70
2023-05-02T00:06:43.220Z,84.80
2023-05-02T00:09:12.575Z,85.10
2023-05-02T00:11:41.603Z,85.40
2023-05-02T00:14:10.827Z,85.70
2023-05-02T00:16:41.296Z,85.90
2023-05-02T00:19:10.354Z,86.00
2023-05-02T00:21:39.949Z,86.10
2023-05-02T00:24:09.005Z,86.40
2023-05-02T00:26:38.114Z,86.60
2023-05-02T00:29:08.132Z,86.90
2023-05-02T00:31:37.324Z,87.10
2023-05-02T00:34:07.861Z,87.20
2023-05-02T00:36:36.938Z,87.30
2023-05-02T00:39:05.997Z,87.40
2023-05-02T00:41:35.108Z,87.40
2023-05-02T00:44:04.223Z,87.30
2023-05-02T00:46:33.456Z,87.30
2023-05-02T00:49:02.881Z,87.20
2023-05-02T00:51:34.709Z,87.10
2023-05-02T00:54:04.013Z,87.10
2023-05-02T00:56:33.047Z,87.10
2023-05-02T00:59:02.454Z,87.10
2023-05-02T01:01:40.024Z,87.10
2023-05-02T01:04:24.486Z,87.00
2023-05-02T01:07:07.669Z,87.00
2023-05-02T01:09:49.511Z,87.00
2023-05-02T01:12:28.106Z,86.90
2023-05-02T01:14:59.711Z,86.80
2023-05-02T01:17:32.874Z,86.70
2023-05-02T01:20:06.365Z,86.60
2023-05-02T01:22:41.184Z,86.50
2023-05-02T01:25:21.822Z,86.50
2023-05-02T01:28:02.715Z,86.50
2023-05-02T01:30:35.231Z,86.40
2023-05-02T01:33:05.880Z,86.50
2023-05-02T01:35:36.916Z,86.60
2023-05-02T01:38:08.054Z,86.60
2023-05-02T01:40:38.206Z,86.60
2023-05-02T01:43:08.506Z,86.40
2023-05-02T01:45:40.471Z,86.40
2023-05-02T01:48:12.081Z,86.30
2023-05-02T01:50:44.578Z,86.30
2023-05-02T01:53:15.360Z,86.20
2023-05-02T01:55:47.384Z,86.30
2023-05-02T01:58:18.059Z,86.30
2023-05-02T02:00:49.105Z,86.20
2023-05-02T02:03:20.207Z,86.20
2023-05-02T02:05:50.819Z,86.00
2023-05-02T02:08:20.228Z,86.00
2023-05-02T02:11:00.684Z,86.10
2023-05-02T02:13:35.577Z,86.20
2023-05-02T02:16:09.778Z,86.30
2023-05-02T02:18:40.939Z,86.30
2023-05-02T02:21:13.406Z,86.30
2023-05-02T02:23:45.436Z,86.30
2023-05-02T02:26:15.772Z,86.30
2023-05-02T02:28:45.009Z,86.20
2023-05-02T02:31:15.452Z,86.00
2023-05-02T02:33:44.884Z,85.90
2023-05-02T02:36:20.749Z,85.90
2023-05-02T02:39:02.754Z,85.70
2023-05-02T02:41:41.688Z,85.60
2023-05-02T02:44:23.520Z,85.60
2023-05-02T02:47:02.761Z,85.70
2023-05-02T02:49:40.788Z,85.60
2023-05-02T02:52:15.673Z,85.50
2023-05-02T02:54:50.295Z,85.40
2023-05-02T02:57:25.459Z,85.30
2023-05-02T03:00:01.184Z,85.20
2023-05-02T03:02:34.545Z,85.20
2023-05-02T03:05:04.983Z,85.10
2023-05-02T03:07:34.581Z,85.00
2023-05-02T03:10:06.986Z,84.90
2023-05-02T03:12:37.381Z,84.90
2023-05-02T03:15:30.491Z,84.90
2023-05-02T03:18:01.220Z,84.70
2023-05-02T03:20:30.761Z,84.50
2023-05-02T03:23:01.283Z,84.50
2023-05-02T03:25:30.318Z,84.40
2023-05-02T03:27:59.541Z,84.30
2023-05-02T03:30:28.693Z,84.40
2023-05-02T03:32:58.203Z,84.30
2023-05-02T03:35:28.903Z,84.20
2023-05-02T03:37:58.061Z,84.10
2023-05-02T03:40:28.906Z,84.00
2023-05-02T03:42:58.902Z,84.00
2023-05-02T03:45:33.231Z,83.90
2023-05-02T03:48:02.437Z,83.90
2023-05-02T03:50:33.679Z,83.90
2023-05-02T03:53:03.077Z,83.90
2023-05-02T03:55:42.434Z,83.90
2023-05-02T03:58:16.136Z,83.80
2023-05-02T04:00:45.827Z,83.80
2023-05-02T04:03:15.284Z,83.90
2023-05-02T04:05:48.344Z,83.90
2023-05-02T04:08:19.376Z,83.90
2023-05-02T04:10:48.779Z,83.90
2023-05-02T04:13:17.815Z,83.70
2023-05-02T04:15:49.807Z,83.70
2023-05-02T04:18:22.911Z,83.70
2023-05-02T04:20:54.096Z,83.70
2023-05-02T04:23:25.797Z,83.70
2023-05-02T04:25:59.836Z,83.60
2023-05-02T04:28:37.056Z,83.60
2023-05-02T04:31:07.589Z,83.60
2023-05-02T04:33:36.807Z,83.60
2023-05-02T04:36:08.343Z,83.60
2023-05-02T04:38:37.756Z,83.60
2023-05-02T04:41:09.215Z,83.60
2023-05-02T04:43:43.904Z,83.60
2023-05-02T04:46:15.038Z,83.70
2023-05-02T04:48:44.054Z,83.70
2023-05-02T04:51:16.826Z,83.60
2023-05-02T04:53:47.984Z,83.70
2023-05-02T04:56:17.210Z,83.60
2023-05-02T04:58:46.347Z,83.70
2023-05-02T05:01:16.428Z,83.70
2023-05-02T05:03:45.621Z,83.70
2023-05-02T05:06:16.750Z,83.70
2023-05-02T05:08:47.230Z,83.80
2023-05-02T05:11:17.772Z,84.00
2023-05-02T05:13:46.794Z,84.00
2023-05-02T05:16:16.950Z,84.00
2023-05-02T05:18:46.511Z,84.00
2023-05-02T05:21:19.176Z,84.00
2023-05-02T05:23:49.331Z,83.90
2023-05-02T05:26:25.315Z,83.80
2023-05-02T05:28:54.462Z,83.70
2023-05-02T05:31:25.571Z,83.70
2023-05-02T05:33:58.503Z,83.80
2023-05-02T05:36:30.159Z,83.60
2023-05-02T05:38:59.183Z,83.50
2023-05-02T05:41:29.001Z,83.50
2023-05-02T05:44:03.720Z,83.50
2023-05-02T05:46:33.422Z,83.50
2023-05-02T05:49:03.802Z,84.10
2023-05-02T05:51:34.605Z,83.40
2023-05-02T05:54:03.708Z,83.50
2023-05-02T05:56:33.602Z,83.50
2023-05-02T05:59:10.056Z,83.50
2023-05-02T06:01:39.672Z,83.60
2023-05-02T06:04:09.620Z,83.70
2023-05-02T06:06:46.526Z,83.70
2023-05-02T06:09:15.799Z,83.60
2023-05-02T06:11:44.837Z,83.60
2023-05-02T06:14:14.282Z,83.70
2023-05-02T06:16:43.644Z,83.70
2023-05-02T06:19:15.029Z,83.80
2023-05-02T06:21:45.498Z,83.70
2023-05-02T06:24:14.671Z,83.90
2023-05-02T06:26:43.801Z,83.90
2023-05-02T06:29:12.781Z,83.90
2023-05-02T06:31:41.967Z,84.00
2023-05-02T06:34:11.122Z,84.00
2023-05-02T06:36:40.171Z,84.10
2023-05-02T06:39:10.658Z,84.20
2023-05-02T06:41:39.830Z,84.20
2023-05-02T06:44:08.872Z,84.10
2023-05-02T06:46:37.938Z,84.20
2023-05-02T06:49:07.074Z,84.30
2023-05-02T06:51:36.150Z,84.40
2023-05-02T06:54:05.315Z,84.40
2023-05-02T06:56:35.801Z,84.40
2023-05-02T06:59:05.796Z,84.60
2023-05-02T07:01:34.946Z,84.60
2023-05-02T07:04:05.808Z,84.70
2023-05-02T07:06:35.044Z,84.70
2023-05-02T07:09:04.172Z,84.60
2023-05-02T07:11:33.249Z,84.60
2023-05-02T07:14:03.679Z,84.70
2023-05-02T07:16:32.786Z,84.60
2023-05-02T07:19:04.653Z,84.60
2023-05-02T07:21:33.900Z,84.80
2023-05-02T07:24:03.335Z,84.90
2023-05-02T07:26:32.392Z,85.00
2023-05-02T07:29:01.387Z,84.90
2023-05-02T07:31:32.086Z,85.00
2023-05-02T07:34:01.420Z,85.00
2023-05-02T07:36:30.606Z,85.10
2023-05-02T07:38:59.623Z,85.10
2023-05-02T07:41:28.730Z,85.20
2023-05-02T07:43:58.456Z,85.10
2023-05-02T07:46:27.701Z,85.10
2023-05-02T07:48:58.153Z,85.20
2023-05-02T07:51:27.384Z,85.00
2023-05-02T07:53:59.007Z,84.80
2023-05-02T07:56:28.107Z,84.30
2023-05-02T07:58:57.210Z,84.30
2023-05-02T08:01:26.333Z,84.20
2023-05-02T08:03:55.588Z,84.00
2023-05-02T08:06:26.198Z,83.90
2023-05-02T08:08:55.231Z,83.70
2023-05-02T08:11:25.913Z,84.50
2023-05-02T08:13:55.310Z,83.60
2023-05-02T08:16:24.434Z,83.60
2023-05-02T08:18:53.537Z,83.50
2023-05-02T08:21:22.578Z,83.30
2023-05-02T08:23:52.995Z,83.30
2023-05-02T08:26:22.175Z,83.20
2023-05-02T08:28:51.285Z,83.00
2023-05-02T08:31:20.888Z,83.20
2023-05-02T08:33:50.562Z,82.80
2023-05-02T08:36:20.224Z,82.50
2023-05-02T08:38:49.625Z,82.10
2023-05-02T08:41:20.678Z,82.00
2023-05-02T08:43:49.836Z,81.80
2023-05-02T08:46:19.162Z,81.60
2023-05-02T08:48:49.326Z,81.50
2023-05-02T08:53:51.136Z,81.20
2023-05-02T08:56:22.099Z,80.90
2023-05-02T08:58:51.254Z,80.60
2023-05-02T09:01:23.800Z,80.40
2023-05-02T09:03:54.709Z,80.30
2023-05-02T09:06:24.409Z,80.10
2023-05-02T09:08:53.859Z,79.80
2023-05-02T09:11:24.277Z,80.40
2023-05-02T09:13:53.837Z,80.00
2023-05-02T09:16:24.356Z,80.00
2023-05-02T09:18:54.814Z,80.00
2023-05-02T09:21:25.398Z,80.20
2023-05-02T09:23:56.317Z,80.30
2023-05-02T09:26:29.558Z,80.20
2023-05-02T09:29:01.732Z,79.80
2023-05-02T09:31:54.217Z,79.60
2023-05-02T09:34:23.165Z,79.60
2023-05-02T09:36:54.584Z,79.80
2023-05-02T09:39:26.050Z,80.20
2023-05-02T09:41:57.075Z,80.50
2023-05-02T09:44:27.559Z,80.70
2023-05-02T09:46:57.984Z,80.90
2023-05-02T09:49:41.689Z,80.80
2023-05-02T09:52:15.287Z,80.70
2023-05-02T09:54:46.781Z,80.50
2023-05-02T09:57:17.696Z,80.10
2023-05-02T09:59:56.769Z,79.60
2023-05-02T10:02:26.352Z,79.10
2023-05-02T10:04:56.359Z,78.80
2023-05-02T10:07:27.207Z,78.70
2023-05-02T10:09:59.571Z,78.60
2023-05-02T10:12:32.737Z,78.10
2023-05-02T10:15:04.591Z,78.00
2023-05-02T10:17:42.327Z,77.90
2023-05-02T10:20:16.537Z,78.00
2023-05-02T10:22:48.784Z,78.30
2023-05-02T10:25:18.306Z,78.50
2023-05-02T10:27:49.627Z,78.10
2023-05-02T10:30:19.173Z,77.70
2023-05-02T10:32:50.569Z,77.80
2023-05-02T10:35:20.475Z,77.90
2023-05-02T10:37:50.490Z,78.00
2023-05-02T10:40:20.270Z,78.10
2023-05-02T10:42:52.511Z,78.10
2023-05-02T10:45:35.797Z,78.30
2023-05-02T10:48:18.726Z,78.40
2023-05-02T10:50:48.894Z,78.50
2023-05-02T10:53:28.612Z,78.70
2023-05-02T10:56:15.631Z,78.70
2023-05-02T10:58:46.878Z,78.80
2023-05-02T11:01:39.928Z,78.70
2023-05-02T11:04:10.881Z,78.40
2023-05-02T11:07:18.798Z,78.10
2023-05-02T11:09:47.827Z,78.00
2023-05-02T11:12:47.923Z,77.60
2023-05-02T11:15:57.333Z,77.10
2023-05-02T11:18:26.397Z,77.30
2023-05-02T11:21:28.709Z,77.20
2023-05-02T11:24:35.199Z,77.20
2023-05-02T11:27:39.266Z,77.20
2023-05-02T11:30:10.063Z,77.10
2023-05-02T11:33:17.523Z,77.10
2023-05-02T11:35:47.851Z,76.90
2023-05-02T11:38:18.709Z,77.00
2023-05-02T11:40:58.317Z,76.80
2023-05-02T11:43:31.863Z,76.70
2023-05-02T11:46:02.606Z,76.40
2023-05-02T11:48:33.572Z,76.20
2023-05-02T11:51:05.784Z,75.70
2023-05-02T11:53:35.249Z,74.90
2023-05-02T11:56:05.918Z,74.00
2023-05-02T11:58:35.054Z,73.30
2023-05-02T12:01:14.274Z,73.00
2023-05-02T12:03:45.155Z,72.80
2023-05-02T12:06:16.049Z,72.50
2023-05-02T12:08:46.139Z,71.90
2023-05-02T12:11:16.662Z,71.50
2023-05-02T12:13:48.167Z,70.90
2023-05-02T12:16:18.243Z,70.10
2023-05-02T12:18:49.606Z,70.30
2023-05-02T12:21:19.253Z,70.00
2023-05-02T12:23:48.588Z,69.80
2023-05-02T12:26:24.343Z,69.90
2023-05-02T12:28:54.807Z,69.40
2023-05-02T12:31:24.882Z,69.50
2023-05-02T12:33:57.677Z,69.30
2023-05-02T12:36:29.001Z,69.10
2023-05-02T12:38:59.666Z,68.90
2023-05-02T12:41:33.848Z,68.80
2023-05-02T12:44:03.475Z,69.00
2023-05-02T12:46:33.156Z,68.80
2023-05-02T12:49:08.392Z,68.70
2023-05-02T12:51:37.901Z,68.50
2023-05-02T12:54:07.662Z,68.40
2023-05-02T12:56:44.198Z,68.10
2023-05-02T12:59:28.098Z,67.70
2023-05-02T13:01:57.344Z,67.70
2023-05-02T13:04:37.017Z,67.90
2023-05-02T13:07:06.297Z,67.50
2023-05-02T13:09:35.341Z,67.50
2023-05-02T13:12:04.681Z,67.70
2023-05-02T13:14:33.837Z,67.30
2023-05-02T13:17:03.140Z,67.00
2023-05-02T13:19:32.398Z,67.20
2023-05-02T13:22:02.951Z,67.00
2023-05-02T13:24:31.960Z,66.10
2023-05-02T13:27:02.011Z,65.30
2023-05-02T13:29:31.713Z,64.90
2023-05-02T13:32:00.723Z,64.80
2023-05-02T13:34:29.753Z,64.90
2023-05-02T13:36:58.834Z,64.60
2023-05-02T13:39:29.320Z,64.20
2023-05-02T13:41:58.447Z,63.90
2023-05-02T13:44:27.461Z,63.70
2023-05-02T13:46:56.522Z,63.40
2023-05-02T13:49:25.723Z,63.20
2023-05-02T13:51:54.840Z,63.00
2023-05-02T13:54:23.966Z,63.10
2023-05-02T13:56:54.445Z,63.20
2023-05-02T13:59:23.469Z,63.70
2023-05-02T14:01:52.568Z,63.70
2023-05-02T14:04:22.347Z,63.50
2023-05-02T14:06:52.792Z,63.40
2023-05-02T14:09:22.161Z,63.20
2023-05-02T14:11:51.183Z,62.90
2023-05-02T14:14:21.685Z,62.90
2023-05-02T14:16:50.717Z,62.90
2023-05-02T14:19:19.748Z,62.80
2023-05-02T14:21:49.048Z,62.60
2023-05-02T14:24:19.442Z,62.60
2023-05-02T14:26:48.706Z,62.40
2023-05-02T14:29:18.601Z,62.60
2023-05-02T14:31:49.137Z,62.60
2023-05-02T14:34:18.258Z,62.40
2023-05-02T14:36:47.250Z,62.30
2023-05-02T14:39:16.963Z,62.30
2023-05-02T14:41:46.188Z,62.50
2023-05-02T14:44:15.260Z,62.50
2023-05-02T14:46:44.361Z,62.30
2023-05-02T14:49:15.048Z,62.30
2023-05-02T14:51:47.330Z,62.50
2023-05-02T14:54:16.869Z,62.50
2023-05-02T14:56:46.000Z,62.70
2023-05-02T14:59:15.109Z,62.80
2023-05-02T15:01:44.401Z,63.10
2023-05-02T15:04:14.995Z,63.40
2023-05-02T15:06:44.300Z,63.70
2023-05-02T15:09:13.560Z,63.80
2023-05-02T15:11:42.597Z,64.00
2023-05-02T15:14:11.986Z,64.00
2023-05-02T15:16:42.160Z,63.60
2023-05-02T15:19:11.456Z,63.30
2023-05-02T15:21:41.921Z,63.00
2023-05-02T15:24:11.521Z,62.80
2023-05-02T15:26:41.141Z,62.80
2023-05-02T15:29:10.874Z,62.80
2023-05-02T15:31:40.061Z,62.40
2023-05-02T15:34:09.753Z,62.00
2023-05-02T15:36:38.776Z,61.80
2023-05-02T15:39:09.241Z,61.50
2023-05-02T15:41:38.282Z,61.10
2023-05-02T15:44:07.314Z,61.00
2023-05-02T15:46:36.432Z,61.00
2023-05-02T15:49:05.488Z,61.00
2023-05-02T15:51:34.524Z,61.00
2023-05-02T15:54:04.209Z,61.20
2023-05-02T15:56:34.764Z,61.60
2023-05-02T15:59:03.818Z,61.60
2023-05-02T16:01:32.851Z,61.60
2023-05-02T16:04:02.074Z,61.60
2023-05-02T16:06:31.222Z,61.60
2023-05-02T16:09:01.621Z,61.40
2023-05-02T16:11:31.897Z,61.40
2023-05-02T16:14:02.368Z,61.70
2023-05-02T16:16:31.456Z,61.70
2023-05-02T16:19:00.512Z,61.60
2023-05-02T16:21:29.723Z,62.00
2023-05-02T16:23:58.785Z,63.20
2023-05-02T16:26:29.573Z,64.50
2023-05-02T16:28:59.174Z,65.40
2023-05-02T16:31:29.656Z,66.20
2023-05-02T16:33:59.268Z,66.70
2023-05-02T16:36:29.153Z,67.40
2023-05-02T16:38:58.294Z,68.20
2023-05-02T16:41:27.424Z,69.10
2023-05-02T16:43:56.707Z,69.90
2023-05-02T16:46:25.922Z,70.40
2023-05-02T16:48:56.548Z,70.90
2023-05-02T16:51:25.594Z,71.20
2023-05-02T16:53:54.890Z,71.60
2023-05-02T16:56:23.966Z,71.70
2023-05-02T16:58:53.027Z,71.90
2023-05-02T17:01:22.497Z,72.10
2023-05-02T17:03:51.591Z,72.40
2023-05-02T17:06:23.027Z,72.90
2023-05-02T17:08:51.895Z,72.90
2023-05-02T17:11:20.932Z,72.90
2023-05-02T17:13:49.998Z,72.90
2023-05-02T17:16:20.647Z,73.40
2023-05-02T17:18:49.861Z,73.90
2023-05-02T17:21:19.025Z,74.30
2023-05-02T17:23:49.480Z,74.80
2023-05-02T17:26:18.553Z,75.10
2023-05-02T17:28:50.245Z,75.50
2023-05-02T17:31:20.469Z,75.80
2023-05-02T17:33:49.532Z,75.90
2023-05-02T17:36:19.055Z,76.10
2023-05-02T17:38:49.497Z,76.40
2023-05-02T17:41:18.562Z,76.60
2023-05-02T17:43:48.780Z,76.80
2023-05-02T17:46:18.011Z,77.00
2023-05-02T17:48:47.488Z,77.40
2023-05-02T17:51:16.572Z,77.60
2023-05-02T17:53:45.838Z,77.80
2023-05-02T17:56:18.825Z,78.10
2023-05-02T17:58:48.131Z,78.30
2023-05-02T18:01:17.623Z,78.50
2023-05-02T18:03:48.248Z,78.70
2023-05-02T18:06:17.829Z,78.70
2023-05-02T18:08:47.265Z,79.00
2023-05-02T18:11:19.031Z,79.10
2023-05-02T18:13:49.598Z,79.30
2023-05-02T18:16:19.165Z,79.40
2023-05-02T18:18:48.300Z,79.60
2023-05-02T18:21:22.858Z,79.70
2023-05-02T18:23:51.896Z,79.90
2023-05-02T18:26:22.270Z,80.10
2023-05-02T18:28:53.403Z,80.30
2023-05-02T18:31:22.508Z,80.40
2023-05-02T18:33:51.661Z,80.40
2023-05-02T18:36:26.208Z,80.20
2023-05-02T18:38:55.901Z,80.50
2023-05-02T18:41:26.459Z,80.80
2023-05-02T18:43:56.381Z,81.00
2023-05-02T18:46:26.689Z,81.10
2023-05-02T18:48:55.749Z,81.10
2023-05-02T18:51:24.813Z,81.20
2023-05-02T18:53:53.901Z,81.20
2023-05-02T18:56:23.406Z,81.20
2023-05-02T18:58:56.466Z,81.30
2023-05-02T19:01:26.186Z,81.40
2023-05-02T19:03:55.509Z,81.60
2023-05-02T19:06:26.360Z,81.90
2023-05-02T19:08:55.543Z,82.00
2023-05-02T19:11:24.553Z,82.00
2023-05-02T19:13:57.370Z,82.00
2023-05-02T19:16:27.718Z,82.10
2023-05-02T19:18:59.525Z,82.10
2023-05-02T19:21:28.588Z,82.10
2023-05-02T19:23:57.622Z,82.20
2023-05-02T19:26:26.938Z,82.30
2023-05-02T19:28:58.098Z,82.30
2023-05-02T19:31:27.298Z,82.40
2023-05-02T19:33:56.306Z,82.50
2023-05-02T19:36:27.461Z,82.70
2023-05-02T19:38:58.184Z,82.80
2023-05-02T19:41:27.656Z,82.90
2023-05-02T19:43:58.963Z,82.90
2023-05-02T19:46:31.543Z,82.90
2023-05-02T19:49:01.004Z,83.00
2023-05-02T19:51:30.763Z,83.10
2023-05-02T19:53:59.797Z,83.30
2023-05-02T19:56:29.146Z,83.40
2023-05-02T19:58:59.714Z,83.40
2023-05-02T20:01:29.583Z,83.40
2023-05-02T20:03:58.794Z,83.50
2023-05-02T20:06:28.603Z,83.60
2023-05-02T20:08:57.685Z,83.50
2023-05-02T20:11:27.082Z,83.50
2023-05-02T20:13:56.154Z,83.50
2023-05-02T20:16:26.946Z,83.60
2023-05-02T20:18:55.986Z,83.70
2023-05-02T20:21:25.168Z,83.70
2023-05-02T20:23:54.239Z,83.70
2023-05-02T20:26:23.490Z,83.80
2023-05-02T20:28:52.490Z,83.80
2023-05-02T20:31:21.543Z,83.80
2023-05-02T20:33:52.063Z,83.80
2023-05-02T20:36:21.136Z,83.80
2023-05-02T20:38:50.146Z,83.90
2023-05-02T20:41:20.272Z,83.80
2023-05-02T20:43:49.901Z,83.90
2023-05-02T20:46:19.276Z,84.00
2023-05-02T20:48:48.636Z,84.10
2023-05-02T20:51:19.144Z,84.00
2023-05-02T20:53:49.013Z,84.00
2023-05-02T20:56:18.063Z,84.00
2023-05-02T20:58:47.139Z,84.00
2023-05-02T21:01:16.216Z,84.00
2023-05-02T21:03:45.319Z,84.00
2023-05-02T21:06:14.396Z,84.10
2023-05-02T21:08:44.822Z,84.10
2023-05-02T21:11:15.106Z,84.10
2023-05-02T21:13:44.897Z,85.00
2023-05-02T21:16:18.125Z,84.10
2023-05-02T21:18:47.714Z,84.10
2023-05-02T21:21:16.724Z,85.00
2023-05-02T21:23:47.161Z,84.10
2023-05-02T21:26:16.230Z,84.10
2023-05-02T21:28:45.210Z,84.10
2023-05-02T21:31:14.307Z,84.10
2023-05-02T21:33:43.534Z,84.20
2023-05-02T21:36:12.674Z,84.10
2023-05-02T21:38:41.723Z,84.10
2023-05-02T21:41:12.265Z,84.20
2023-05-02T21:43:41.739Z,84.10
2023-05-02T21:46:12.455Z,84.30
2023-05-02T21:48:41.560Z,84.40
2023-05-02T21:51:11.460Z,84.40
2023-05-02T21:53:40.783Z,84.50
2023-05-02T21:56:11.565Z,84.50
2023-05-02T21:58:40.653Z,84.60
2023-05-02T22:01:11.288Z,84.60
2023-05-02T22:03:40.515Z,84.60
2023-05-02T22:06:09.749Z,84.70
2023-05-02T22:08:38.827Z,84.70
2023-05-02T22:11:09.406Z,84.70
2023-05-02T22:13:40.061Z,84.70
2023-05-02T22:16:09.781Z,84.60
2023-05-02T22:18:39.376Z,84.50
2023-05-02T22:21:08.381Z,84.50
2023-05-02T22:23:37.462Z,84.50
2023-05-02T22:26:06.503Z,84.50
2023-05-02T22:28:35.530Z,84.50
2023-05-02T22:31:06.219Z,84.50
2023-05-02T22:33:35.246Z,84.50
2023-05-02T22:36:04.390Z,84.50
2023-05-02T22:38:33.408Z,84.60
2023-05-02T22:41:03.251Z,84.60
2023-05-02T22:43:32.506Z,84.60
2023-05-02T22:46:02.340Z,84.60
2023-05-02T22:48:32.762Z,84.50
2023-05-02T22:51:01.848Z,84.40
2023-05-02T22:53:31.385Z,84.30
2023-05-02T22:56:00.434Z,84.20
2023-05-02T22:58:29.504Z,84.00
2023-05-02T23:00:58.580Z,83.90
2023-05-02T23:03:27.694Z,83.70
2023-05-02T23:05:58.267Z,83.70
2023-05-02T23:08:27.318Z,83.60
2023-05-02T23:10:56.322Z,83.70
2023-05-02T23:13:25.425Z,83.60
2023-05-02T23:15:55.177Z,83.70
2023-05-02T23:18:24.383Z,83.70
2023-05-02T23:20:53.407Z,83.80
2023-05-02T23:23:23.856Z,84.00
2023-05-02T23:25:52.912Z,84.10
2023-05-02T23:28:21.946Z,84.10
2023-05-02T23:30:51.229Z,84.20
2023-05-02T23:33:20.277Z,84.30
2023-05-02T23:35:49.538Z,84.30
2023-05-02T23:38:18.723Z,84.50
2023-05-02T23:40:49.219Z,84.60
2023-05-02T23:43:18.448Z,84.80
2023-05-02T23:45:47.464Z,84.90
2023-05-02T23:48:16.499Z,85.00
2023-05-02T23:50:45.490Z,85.20
2023-05-02T23:53:14.487Z,85.40
2023-05-02T23:55:43.529Z,85.50
2023-05-02T23:58:13.980Z,85.50
